• Join FlightAware (Why Join?)
  • Login
  • US Flag 
10:36PM EDT


 

Airport Tracker/Info


-or-


 

Live Flight TrackerFlight Track Log ✈ N2JJ ✈ 01.07.2013 ✈ KRAP - KFTG

Flight Track Log - Related Links

Times and Time Zones

All times are in EDT time to prevent confusion due to time zone crossing. See the N2JJ flight status page for this flight to view local times or setup timezone preferences in your user account.

Time Position Orientation Groundspeed Altitude Reporting Facility
EDT Latitude Longitude Course Direction KTS MPH feet Rate Location/Type
05:54PM 44.0247 -103.0447 184° South 127 146 3,600  Level Denver Center
05:56PM 43.9786 -103.0489 184° South 120 138 4,800 720 Climbing Denver Center
05:57PM 43.9397 -103.0450 176° South 134 154 5,400 540 Climbing Denver Center
05:58PM 43.9036 -103.0464 182° South 135 155 6,000 540 Climbing Denver Center
05:59PM 43.8617 -103.0494 183° South 146 168 6,500 540 Climbing Denver Center
06:00PM 43.8219 -103.0547 185° South 151 174 7,100 2,220 Climbing Denver Center
06:00PM 43.7969 -103.0589 187° South 152 175 10,000 600 Climbing Denver Center
06:01PM 43.7550 -103.0631 184° South 148 170 8,100 -720 Descending Denver Center
06:02PM 43.7153 -103.0647 182° South 147 169 8,600 420 Climbing Denver Center
06:03PM 43.6672 -103.0683 183° South 150 173 9,000 180 Climbing Denver Center
06:04PM 43.6225 -103.0800 191° South 161 185 9,000  Level Denver Center
06:05PM 43.5703 -103.0975 194° South 169 194 9,000  Level Denver Center
06:06PM 43.5264 -103.1122 194° South 170 196 9,000  Level Denver Center
06:07PM 43.4800 -103.1103 178° South 169 194 9,000  Level Denver Center
06:09PM 43.4264 -103.1064 177° South 171 197 9,000  Level Denver Center
06:10PM 43.3800 -103.1025 177° South 172 198 9,000  Level Denver Center
06:11PM 43.3228 -103.1008 179° South 178 205 9,000  Level Denver Center
06:12PM 43.2819 -103.0958 175° South 181 208 9,000  Level Denver Center
06:13PM 43.2194 -103.1000 183° South 180 207 9,000  Level Denver Center
06:14PM 43.1747 -103.1108 190° South 176 203 9,000  Level Denver Center
06:15PM 43.1219 -103.1194 187° South 173 199 9,000  Level Denver Center
06:16PM 43.0775 -103.1322 192° South 172 198 9,000  Level Denver Center
06:17PM 43.0333 -103.1483 195° South 172 198 9,000  Level Denver Center
06:18PM 42.9894 -103.1636 194° South 171 197 9,000  Level Denver Center
06:19PM 42.9364 -103.1800 193° South 172 198 9,000  Level Denver Center
06:20PM 42.8831 -103.1969 193° South 175 201 9,000  Level Denver Center
06:21PM 42.8369 -103.2103 192° South 176 203 9,000  Level Denver Center
06:22PM 42.7839 -103.2242 191° South 174 200 9,000  Level Denver Center
06:23PM 42.7314 -103.2369 190° South 173 199 9,000 120 Level Denver Center
06:24PM 42.6800 -103.2522 192° South 171 197 9,300 360 Climbing Denver Center
06:25PM 42.6397 -103.2633 191° South 165 190 9,800 300 Climbing Denver Center
06:26PM 42.5933 -103.2750 190° South 157 181 10,000 60 Climbing Denver Center
06:27PM 42.5506 -103.2864 191° South 158 182 10,000  Level Denver Center
06:28PM 42.4950 -103.3058 194° South 170 196 10,000  Level Denver Center
06:29PM 42.4461 -103.3222 194° South 179 206 10,000  Level Denver Center
06:30PM 42.3983 -103.3369 193° South 183 211 10,000  Level Denver Center
06:31PM 42.3442 -103.3517 191° South 181 208 10,000  Level Denver Center
06:32PM 42.2975 -103.3631 190° South 179 206 10,000  Level Denver Center
06:33PM 42.2428 -103.3775 191° South 179 206 10,000 -480 Level Denver Center
06:34PM 42.1964 -103.3922 193° South 179 206 9,100  Descending Denver Center
06:36PM 42.1411 -103.4097 193° South 180 207 10,000 360 Climbing Denver Center
06:37PM 42.0931 -103.4228 191° South 182 209 10,000  Level Denver Center
06:38PM 42.0294 -103.4417 192° South 183 211 10,000  Level Denver Center
06:39PM 41.9772 -103.4564 192° South 182 209 10,000  Level Denver Center
06:40PM 41.9256 -103.4714 192° South 183 211 10,000  Level Denver Center
06:41PM 41.8736 -103.4864 192° South 183 211 10,000  Level Denver Center
06:42PM 41.8300 -103.5139 205° Southwest 182 209 10,000  Level Denver Center
06:43PM 41.7933 -103.5514 217° Southwest 175 201 10,000  Level Denver Center
06:44PM 41.7544 -103.5883 215° Southwest 177 204 10,000  Level Denver Center
06:45PM 41.7086 -103.6283 213° Southwest 177 204 10,000  Level Denver Center
06:46PM 41.6683 -103.6606 211° Southwest 176 203 10,000  Level Denver Center
06:47PM 41.6286 -103.6900 209° Southwest 175 201 10,000  Level Denver Center
06:48PM 41.5792 -103.7247 208° Southwest 176 203 10,000  Level Denver Center
06:49PM 41.5314 -103.7617 210° Southwest 177 204 10,000  Level Denver Center
06:50PM 41.4953 -103.7889 209° Southwest 177 204 10,100  Climbing Denver Center
06:52PM 41.4386 -103.8312 209° Southwest  Level FlightAware Approximate
06:52PM 41.4017 -103.8619 209° Southwest 158 182 10,100  Level Denver Center
06:53PM 41.3603 -103.8978 213° Southwest 180 207 10,100  Level Denver Center
06:54PM 41.3117 -103.9336 209° Southwest 180 207 10,100  Level Denver Center
06:55PM 41.2703 -103.9653 210° Southwest 179 206 10,100  Level Denver Center
06:56PM 41.2239 -104.0014 210° Southwest 176 203 10,100  Level Denver Center
06:57PM 41.1847 -104.0297 209° Southwest 170 196 10,100  Level Denver Center
06:58PM 41.1378 -104.0636 209° Southwest 171 197 10,100  Level Denver Center
06:59PM 41.0953 -104.0967 210° Southwest 179 206 10,100  Level Denver Center
07:00PM 41.0472 -104.1358 212° Southwest 180 207 10,100  Level Denver Center
07:03PM 40.9625 -104.2028 211° Southwest 183 211 10,100  Level Denver Center
07:04PM 40.9200 -104.2394 213° Southwest 182 209 10,100  Level Denver Center
07:05PM 40.8761 -104.2736 210° Southwest 182 209 10,100  Level Denver Center
07:06PM 40.8233 -104.3086 207° Southwest 180 207 10,100  Level Denver Center
07:07PM 40.7806 -104.3422 211° Southwest 179 206 10,100  Level Denver Center
07:08PM 40.7356 -104.3733 208° Southwest 181 208 10,100 -60 Level Denver Center
07:09PM 40.6814 -104.3742 181° South 181 208 10,000 -120 Descending Denver Center
07:10PM 40.6333 -104.3775 183° South 175 201 9,900 -60 Descending Denver Center
07:11PM 40.5828 -104.3658 170° South 180 207 9,900  Level Denver Center
07:12PM 40.5317 -104.3564 172° South 174 200 9,900  Level Denver Center
07:13PM 40.4839 -104.3458 170° South 175 201 9,900  Level Denver Center
07:14PM 40.4339 -104.3369 172° South 169 194 9,900  Level Denver Center
07:15PM 40.3861 -104.3286 172° South 172 198 9,900  Level Denver Center
07:16PM 40.3378 -104.3203 173° South 175 201 9,900 -60 Level Denver Center
07:17PM 40.2856 -104.3100 171° South 175 201 9,800 -480 Descending Denver Center
07:18PM 40.2339 -104.3000 172° South 187 215 9,000 -720 Descending Denver Center
07:19PM 40.1750 -104.2894 172° South 196 226 8,400 -540 Descending Denver Center
07:20PM 40.1217 -104.2797 172° South 193 222 7,900 -300 Descending Denver Center
07:21PM 40.0725 -104.2708 172° South 182 209 7,900  Level Denver Center
07:22PM 40.0231 -104.2636 174° South 170 196 7,900  Level Denver Center
07:23PM 39.9764 -104.2572 174° South 168 193 7,900  Level Denver Center
07:24PM 39.9283 -104.2508 174° South 162 186 7,900  Level Denver Center
07:25PM 39.8967 -104.2875 222° Southwest 177 204 7,900  Level Denver Center
07:26PM 39.8639 -104.3406 231° Southwest 173 199 7,900 -300 Level Denver Center
07:27PM 39.8386 -104.3983 240° Southwest 186 214 7,400 -780 Descending Denver Center
07:28PM 39.8322 -104.4756 264° West 214 246 6,400 -600 Descending Denver Center
07:30PM 39.8242 -104.5531 262° West 198 228 6,100 -420 Descending Denver Center
07:31PM 39.7942 -104.5744 209° Southwest 136 157 5,500 -480 Descending Denver Center
07:33PM 39.7842 -104.5376 109° East  Level Estimated